Time;durP1;ratioP1;P1;durP2;ratioP2;P2;SDS_P1;SDS_P2;PMS_P1;PMS_P2;Temp;Humidity;BMP_temperature;BMP_pressure;BME280_temperature;BME280_humidity;BME280_pressure;Samples;Min_cycle;Max_cycle;Signal;HPM_P1;HPM_P2
2022/09/04 00:01:38;;;;;;;19.20;12.20;;;14.50;99.90;;;;;;5113199;28;20191;-68
2022/09/04 00:04:16;;;;;;;21.97;13.97;;;14.50;99.90;;;;;;5113612;28;20236;-68
2022/09/04 00:06:51;;;;;;;20.47;13.37;;;14.50;99.90;;;;;;5125366;27;20700;-67
2022/09/04 00:09:25;;;;;;;25.97;15.17;;;14.50;99.90;;;;;;5121062;27;20557;-67
2022/09/04 00:12:04;;;;;;;25.13;14.23;;;14.40;99.90;;;;;;5134024;27;20187;-68
2022/09/04 00:14:38;;;;;;;24.07;15.23;;;14.50;99.90;;;;;;5133272;27;20627;-68
2022/09/04 00:17:12;;;;;;;27.97;14.43;;;14.40;99.90;;;;;;5133607;27;20213;-68
2022/09/04 00:19:45;;;;;;;25.57;14.80;;;14.40;99.90;;;;;;5133564;27;20194;-67
2022/09/04 00:22:23;;;;;;;25.53;14.60;;;14.40;99.90;;;;;;5133372;27;20187;-67
2022/09/04 00:24:56;;;;;;;26.13;15.63;;;14.40;99.90;;;;;;5133913;27;20642;-67
2022/09/04 00:27:29;;;;;;;23.73;14.63;;;14.40;99.90;;;;;;5132826;27;20590;-68
2022/09/04 00:30:06;;;;;;;31.13;15.40;;;14.40;99.90;;;;;;5133886;27;20197;-66
2022/09/04 00:32:39;;;;;;;22.47;13.63;;;14.30;99.90;;;;;;5133265;27;20251;-69
2022/09/04 00:35:13;;;;;;;25.90;14.13;;;14.30;99.90;;;;;;5133437;27;20183;-67
2022/09/04 00:37:45;;;;;;;20.33;12.50;;;14.20;99.90;;;;;;5131192;28;20685;-67
2022/09/04 00:40:24;;;;;;;22.37;13.13;;;14.20;99.90;;;;;;5133032;27;20183;-68
2022/09/04 00:43:31;;;;;;;22.83;12.90;;;14.10;99.90;;;;;;5133333;28;20244;-68
2022/09/04 00:46:29;;;;;;;23.40;14.03;;;14.10;99.90;;;;;;5133371;28;20202;-67
2022/09/04 00:49:31;;;;;;;27.23;14.27;;;14.00;99.90;;;;;;5132271;28;21383;-68
2022/09/04 00:52:10;;;;;;;30.00;15.27;;;14.00;99.90;;;;;;5121415;27;20682;-68
2022/09/04 00:55:07;;;;;;;25.07;14.40;;;13.90;99.90;;;;;;5133112;28;20191;-68
2022/09/04 00:57:58;;;;;;;24.90;14.00;;;13.70;99.90;;;;;;5131401;28;20207;-67
2022/09/04 01:00:29;;;;;;;22.77;12.90;;;13.60;99.90;;;;;;5127968;27;20195;-67
2022/09/04 01:03:18;;;;;;;26.60;14.23;;;13.60;99.90;;;;;;5133035;27;20237;-69
2022/09/04 01:06:03;;;;;;;28.53;13.30;;;13.60;99.90;;;;;;5123081;27;20214;-68
2022/09/04 01:08:45;;;;;;;21.53;13.00;;;13.50;99.90;;;;;;5132923;27;20271;-68
2022/09/04 01:11:18;;;;;;;22.30;12.90;;;13.40;99.90;;;;;;5112412;28;20218;-68
2022/09/04 01:13:56;;;;;;;23.37;13.30;;;13.30;99.90;;;;;;5112140;28;20226;-68
2022/09/04 01:16:32;;;;;;;26.63;13.97;;;13.20;99.90;;;;;;5112501;28;20211;-67
2022/09/04 01:19:04;;;;;;;23.97;13.73;;;13.20;99.90;;;;;;5112414;28;20293;-66
2022/09/04 01:22:00;;;;;;;24.37;13.80;;;13.10;99.90;;;;;;5112629;28;20214;-68
2022/09/04 01:24:39;;;;;;;26.57;13.83;;;13.10;99.90;;;;;;5112716;28;20235;-68
2022/09/04 01:27:09;;;;;;;21.30;13.30;;;12.90;99.90;;;;;;5112396;28;20184;-67
2022/09/04 01:29:48;;;;;;;23.70;12.73;;;12.80;99.90;;;;;;5118313;28;20203;-66
2022/09/04 01:32:24;;;;;;;22.37;12.97;;;12.80;99.90;;;;;;5132415;27;20187;-66
2022/09/04 01:35:01;;;;;;;19.23;11.73;;;12.70;99.90;;;;;;5130489;27;20210;-65
2022/09/04 01:37:46;;;;;;;25.87;12.77;;;12.70;99.90;;;;;;5132521;28;20217;-65
2022/09/04 01:40:29;;;;;;;20.77;12.00;;;12.80;99.90;;;;;;5132060;27;20203;-66
2022/09/04 01:43:02;;;;;;;20.73;11.33;;;12.80;99.90;;;;;;5132796;28;20199;-65
2022/09/04 01:45:38;;;;;;;20.33;11.23;;;12.80;99.90;;;;;;5132961;28;20198;-66
2022/09/04 01:48:09;;;;;;;20.80;11.27;;;12.80;99.90;;;;;;5132684;27;20189;-66
2022/09/04 01:50:38;;;;;;;16.87;10.20;;;12.80;99.90;;;;;;5131718;27;20202;-66
2022/09/04 01:53:11;;;;;;;15.70;9.67;;;12.80;99.90;;;;;;5135451;27;20556;-65
2022/09/04 01:55:46;;;;;;;16.80;9.60;;;12.90;99.90;;;;;;5136253;27;20214;-66
2022/09/04 01:58:24;;;;;;;18.30;10.90;;;12.90;99.90;;;;;;5135745;27;20210;-67
2022/09/04 02:01:00;;;;;;;18.03;10.43;;;12.90;99.90;;;;;;5134693;27;20198;-67
2022/09/04 02:03:38;;;;;;;21.67;11.10;;;12.90;99.90;;;;;;5135914;27;20278;-66
2022/09/04 02:06:12;;;;;;;15.93;10.33;;;12.90;99.90;;;;;;5135567;27;20204;-66
2022/09/04 02:08:59;;;;;;;18.00;10.63;;;12.80;99.90;;;;;;5136039;27;20186;-66
2022/09/04 02:11:29;;;;;;;18.53;10.70;;;12.80;99.90;;;;;;5133694;27;20202;-66
2022/09/04 02:14:19;;;;;;;16.30;9.67;;;12.80;99.90;;;;;;5135754;27;20631;-65
2022/09/04 02:16:56;;;;;;;16.77;9.03;;;12.80;99.90;;;;;;5135739;27;20211;-67
2022/09/04 02:19:36;;;;;;;15.73;9.77;;;12.80;99.90;;;;;;5135121;27;20196;-65
2022/09/04 02:22:11;;;;;;;17.13;10.20;;;12.80;99.90;;;;;;5135279;27;20199;-65
2022/09/04 02:24:48;;;;;;;14.57;9.47;;;12.80;99.90;;;;;;5136050;27;20186;-67
2022/09/04 02:27:23;;;;;;;16.10;10.10;;;12.80;99.90;;;;;;5134166;27;20786;-65
2022/09/04 02:30:01;;;;;;;17.20;9.07;;;12.80;99.90;;;;;;5136061;27;20210;-67
2022/09/04 02:32:36;;;;;;;17.37;8.87;;;12.70;99.90;;;;;;5135446;27;20183;-66
2022/09/04 02:35:09;;;;;;;14.60;8.90;;;12.70;99.90;;;;;;5135517;27;20197;-66
2022/09/04 02:37:50;;;;;;;18.53;9.03;;;12.70;99.90;;;;;;5134781;27;20577;-67
2022/09/04 02:40:24;;;;;;;16.33;9.17;;;12.70;99.90;;;;;;5135440;27;20194;-66
2022/09/04 02:43:03;;;;;;;17.17;9.20;;;12.70;99.90;;;;;;5134130;27;20651;-65
2022/09/04 02:45:39;;;;;;;14.93;9.10;;;12.70;99.90;;;;;;5135399;27;20187;-66
2022/09/04 02:48:14;;;;;;;16.40;9.97;;;12.70;99.90;;;;;;5134027;27;20191;-67
2022/09/04 02:50:53;;;;;;;15.77;10.00;;;12.60;99.90;;;;;;5133659;27;20659;-68
2022/09/04 02:53:29;;;;;;;14.83;9.70;;;12.50;99.90;;;;;;5135265;27;20553;-67
2022/09/04 02:56:09;;;;;;;18.00;10.23;;;12.40;99.90;;;;;;5134901;27;20186;-67
2022/09/04 02:58:49;;;;;;;18.90;9.40;;;12.50;99.90;;;;;;5133529;27;20206;-65
2022/09/04 03:01:26;;;;;;;21.53;9.73;;;12.40;99.90;;;;;;5134877;27;20233;-66
2022/09/04 03:04:02;;;;;;;16.67;9.77;;;12.40;99.90;;;;;;5134866;27;20183;-67
2022/09/04 03:06:44;;;;;;;18.23;10.80;;;12.30;99.90;;;;;;5134584;27;20230;-66
2022/09/04 03:09:16;;;;;;;19.23;11.00;;;12.30;99.90;;;;;;5133507;27;20220;-66
2022/09/04 03:11:49;;;;;;;17.67;10.20;;;12.30;99.90;;;;;;5128473;27;20205;-66
2022/09/04 03:14:24;;;;;;;17.33;10.73;;;12.30;99.90;;;;;;5128245;27;20237;-66
2022/09/04 03:16:59;;;;;;;20.07;10.67;;;12.20;99.90;;;;;;5133015;27;20203;-65
2022/09/04 03:19:33;;;;;;;15.70;10.00;;;12.20;99.90;;;;;;5134663;27;20278;-67
2022/09/04 03:22:07;;;;;;;17.30;9.57;;;12.20;99.90;;;;;;5132859;27;20204;-67
2022/09/04 03:24:42;;;;;;;15.63;9.13;;;12.20;99.90;;;;;;5134319;27;20190;-66
2022/09/04 03:27:13;;;;;;;16.43;9.70;;;12.20;99.90;;;;;;5133921;27;21178;-67
2022/09/04 03:29:50;;;;;;;13.47;8.87;;;12.20;99.90;;;;;;5134684;27;20209;-67
2022/09/04 03:32:24;;;;;;;15.77;9.40;;;12.20;99.90;;;;;;5132730;27;20199;-67
2022/09/04 03:34:59;;;;;;;16.87;9.13;;;12.20;99.90;;;;;;5134271;27;20198;-66
2022/09/04 03:37:52;;;;;;;14.80;9.27;;;12.20;99.90;;;;;;5134357;27;20213;-68
2022/09/04 03:40:33;;;;;;;13.93;8.43;;;12.10;99.90;;;;;;5134178;27;20625;-66
2022/09/04 03:43:30;;;;;;;15.83;8.40;;;12.10;99.90;;;;;;5131510;27;20245;-66
2022/09/04 03:46:06;;;;;;;13.23;8.37;;;12.10;99.90;;;;;;5126730;27;20206;-67
2022/09/04 03:48:50;;;;;;;13.63;9.00;;;12.10;99.90;;;;;;5133976;27;20182;-65
2022/09/04 03:51:24;;;;;;;12.90;8.27;;;12.10;99.90;;;;;;5131133;27;20297;-67
2022/09/04 03:54:03;;;;;;;17.17;9.03;;;12.10;99.90;;;;;;5112995;28;20198;-66
2022/09/04 03:56:48;;;;;;;15.03;8.80;;;12.10;99.90;;;;;;5113223;28;20528;-66
2022/09/04 03:59:27;;;;;;;16.70;8.77;;;12.10;99.90;;;;;;5113282;28;20187;-66
2022/09/04 04:02:00;;;;;;;15.87;8.60;;;12.00;99.90;;;;;;5132340;27;20304;-67
2022/09/04 04:04:56;;;;;;;14.43;8.60;;;12.00;99.90;;;;;;5133363;27;20197;-66
2022/09/04 04:07:34;;;;;;;14.10;8.57;;;12.10;99.90;;;;;;5133525;27;20197;-66
2022/09/04 04:10:13;;;;;;;16.50;9.20;;;12.10;99.90;;;;;;5131488;27;20714;-67
2022/09/04 04:13:07;;;;;;;18.77;9.10;;;12.10;99.90;;;;;;5133617;27;20218;-67
2022/09/04 04:15:49;;;;;;;13.97;8.37;;;12.20;99.90;;;;;;5132211;27;20244;-67
2022/09/04 04:18:42;;;;;;;17.47;9.43;;;12.20;99.90;;;;;;5133608;27;20540;-66
2022/09/04 04:21:18;;;;;;;15.90;9.17;;;12.30;99.90;;;;;;5132170;27;20282;-66
2022/09/04 04:24:28;;;;;;;16.80;10.03;;;12.20;99.90;;;;;;5133451;27;20217;-65
2022/09/04 04:27:07;;;;;;;13.90;9.00;;;12.30;99.90;;;;;;5132618;27;20213;-66
2022/09/04 04:29:57;;;;;;;13.97;9.03;;;12.30;99.90;;;;;;5133335;27;20600;-66
2022/09/04 04:32:39;;;;;;;15.03;9.50;;;12.40;99.90;;;;;;5112295;28;20203;-65
2022/09/04 04:35:15;;;;;;;18.73;9.53;;;12.40;99.90;;;;;;5126685;27;20308;-67
2022/09/04 04:38:08;;;;;;;16.20;8.97;;;12.40;99.90;;;;;;5132961;28;20187;-65
2022/09/04 04:41:03;;;;;;;17.83;10.63;;;12.40;99.90;;;;;;5133267;28;20226;-67
2022/09/04 04:43:40;;;;;;;15.37;9.57;;;12.40;99.90;;;;;;5133197;27;20195;-66
2022/09/04 04:46:13;;;;;;;15.03;8.60;;;12.50;99.90;;;;;;5132060;28;20545;-66
2022/09/04 04:49:31;;;;;;;13.53;8.87;;;12.50;99.90;;;;;;5132943;28;20658;-66
2022/09/04 04:52:17;;;;;;;14.13;9.27;;;12.60;99.90;;;;;;5049050;28;20640;-66
2022/09/04 04:55:07;;;;;;;16.50;8.43;;;12.60;99.90;;;;;;5047176;28;20209;-68
2022/09/04 04:57:46;;;;;;;16.90;8.17;;;12.60;99.90;;;;;;5049284;28;20212;-66
2022/09/04 05:00:18;;;;;;;12.90;8.37;;;12.70;99.90;;;;;;5049417;28;20227;-66
2022/09/04 05:02:55;;;;;;;15.83;9.10;;;12.80;99.90;;;;;;5048696;28;20229;-65
2022/09/04 05:05:45;;;;;;;15.23;9.53;;;12.80;99.90;;;;;;5048675;28;20197;-66
2022/09/04 05:08:22;;;;;;;13.33;8.30;;;12.90;99.90;;;;;;5048984;28;20792;-66
2022/09/04 05:10:56;;;;;;;14.57;8.57;;;13.00;99.90;;;;;;5048502;28;20229;-67
2022/09/04 05:13:27;;;;;;;18.27;8.93;;;13.00;99.90;;;;;;5049034;28;20614;-66
2022/09/04 05:16:05;;;;;;;18.97;9.90;;;13.20;99.90;;;;;;5047986;28;20233;-67
2022/09/04 05:18:37;;;;;;;14.07;8.03;;;13.30;99.90;;;;;;5048969;28;20384;-67
2022/09/04 05:21:10;;;;;;;15.33;8.20;;;13.40;99.90;;;;;;5049171;28;20232;-67
2022/09/04 05:23:44;;;;;;;15.47;8.23;;;13.50;99.90;;;;;;5115148;28;20207;-67
2022/09/04 05:26:24;;;;;;;15.60;7.40;;;13.60;99.90;;;;;;5129888;27;20647;-66
2022/09/04 05:28:58;;;;;;;11.70;7.53;;;13.60;99.90;;;;;;5135864;27;20241;-67
2022/09/04 05:31:36;;;;;;;12.90;7.67;;;13.70;99.90;;;;;;5136609;27;20251;-67
2022/09/04 05:34:09;;;;;;;13.13;7.63;;;13.80;99.90;;;;;;5135958;27;20213;-69
2022/09/04 05:36:46;;;;;;;11.70;7.00;;;13.90;99.90;;;;;;5136286;27;20215;-67
2022/09/04 05:39:22;;;;;;;13.63;7.30;;;14.00;99.90;;;;;;5136359;27;20187;-66
2022/09/04 05:42:13;;;;;;;13.93;7.37;;;14.10;99.90;;;;;;5135071;27;20195;-69
2022/09/04 05:44:52;;;;;;;13.00;7.63;;;14.20;99.90;;;;;;5115292;28;20227;-67
2022/09/04 05:47:31;;;;;;;11.90;7.20;;;14.30;99.90;;;;;;5115491;28;20203;-66
2022/09/04 05:50:12;;;;;;;10.93;7.40;;;14.40;99.90;;;;;;5115795;28;20271;-67
2022/09/04 05:52:58;;;;;;;19.00;7.90;;;14.50;99.90;;;;;;5122242;27;20203;-67
2022/09/04 05:55:57;;;;;;;14.77;8.30;;;14.60;99.90;;;;;;5136523;27;20197;-66
2022/09/04 05:58:41;;;;;;;11.33;7.60;;;14.70;99.90;;;;;;5136255;27;20224;-68
2022/09/04 06:01:23;;;;;;;11.47;7.03;;;14.80;99.90;;;;;;5135877;27;20219;-67
2022/09/04 06:04:15;;;;;;;12.07;8.40;;;14.90;99.90;;;;;;5132362;27;20298;-67
2022/09/04 06:06:51;;;;;;;15.33;7.50;;;15.00;99.90;;;;;;5133034;27;20286;-68
2022/09/04 06:09:34;;;;;;;14.57;7.47;;;15.00;99.90;;;;;;5131858;27;20210;-67
2022/09/04 06:12:27;;;;;;;8.97;5.83;;;15.10;99.90;;;;;;5127161;27;20201;-67
2022/09/04 06:15:13;;;;;;;10.23;5.87;;;15.20;99.90;;;;;;5123663;27;20188;-68
2022/09/04 06:18:06;;;;;;;11.10;5.47;;;15.30;99.90;;;;;;5125172;27;20199;-67
2022/09/04 06:20:46;;;;;;;9.23;4.90;;;15.40;99.90;;;;;;5124083;27;20552;-66
2022/09/04 06:23:24;;;;;;;9.47;4.60;;;15.50;99.90;;;;;;5129022;27;20653;-67
2022/09/04 06:26:05;;;;;;;7.13;4.37;;;15.60;99.90;;;;;;5123777;27;20198;-66
2022/09/04 06:29:00;;;;;;;7.40;3.73;;;15.70;99.90;;;;;;5126579;27;20249;-69
2022/09/04 06:32:08;;;;;;;6.23;3.47;;;15.70;99.90;;;;;;5125457;27;20639;-66
2022/09/04 06:34:53;;;;;;;15.80;9.50;;;15.80;99.90;;;;;;5123454;27;20193;-66
2022/09/04 06:37:32;;;;;;;7.67;3.87;;;15.90;99.90;;;;;;5126926;27;20259;-68
2022/09/04 06:40:17;;;;;;;7.17;3.70;;;16.00;99.90;;;;;;5127042;27;20590;-69
2022/09/04 06:43:00;;;;;;;5.63;3.50;;;16.10;99.90;;;;;;5133627;27;20663;-69
2022/09/04 06:45:42;;;;;;;5.37;2.97;;;16.00;99.90;;;;;;5129764;27;20227;-68
2022/09/04 06:48:22;;;;;;;4.20;2.70;;;16.10;99.90;;;;;;5135487;27;20292;-71
2022/09/04 06:50:59;;;;;;;5.17;3.20;;;16.20;99.90;;;;;;5135682;27;20194;-68
2022/09/04 06:53:41;;;;;;;5.70;2.80;;;16.30;99.90;;;;;;5132918;27;20227;-70
2022/09/04 06:56:25;;;;;;;4.83;2.90;;;16.40;99.90;;;;;;5131323;27;20199;-70
2022/09/04 06:59:24;;;;;;;5.93;2.60;;;16.40;99.90;;;;;;5133099;27;20666;-68
2022/09/04 07:02:01;;;;;;;3.30;2.30;;;16.40;99.90;;;;;;5128585;27;20290;-68
2022/09/04 07:04:51;;;;;;;4.23;2.40;;;16.40;99.90;;;;;;5135449;27;20566;-67
2022/09/04 07:07:25;;;;;;;4.00;2.70;;;16.50;99.90;;;;;;5135399;27;20731;-67
2022/09/04 07:09:57;;;;;;;3.83;2.43;;;16.60;99.90;;;;;;5135066;27;20211;-68
2022/09/04 07:13:08;;;;;;;4.43;2.70;;;16.60;99.90;;;;;;5135043;27;20180;-68
2022/09/04 07:15:56;;;;;;;3.47;2.20;;;16.60;99.90;;;;;;5098002;27;20212;-71
2022/09/04 07:18:39;;;;;;;3.30;2.40;;;16.60;99.90;;;;;;5134725;27;20220;-68
2022/09/04 07:21:15;;;;;;;5.97;2.40;;;16.70;99.90;;;;;;5134630;27;20240;-67
2022/09/04 07:23:50;;;;;;;3.57;2.33;;;16.70;99.90;;;;;;5134702;27;20195;-69
2022/09/04 07:26:25;;;;;;;8.00;2.50;;;16.70;99.50;;;;;;5134945;27;20193;-69
2022/09/04 07:29:08;;;;;;;5.30;2.50;;;16.80;99.40;;;;;;5134321;27;20330;-70
2022/09/04 07:31:40;;;;;;;4.47;2.23;;;16.80;99.20;;;;;;5134633;27;20202;-69
2022/09/04 07:34:14;;;;;;;4.83;3.03;;;16.90;98.60;;;;;;5134811;27;20629;-70
2022/09/04 07:36:48;;;;;;;5.27;2.17;;;16.90;98.70;;;;;;5134856;27;20203;-69
2022/09/04 07:39:20;;;;;;;4.13;2.10;;;16.90;98.30;;;;;;5134400;27;20193;-69
2022/09/04 07:41:56;;;;;;;4.90;2.40;;;16.90;98.30;;;;;;5134007;27;20290;-69
2022/09/04 07:44:30;;;;;;;4.90;1.93;;;16.90;98.00;;;;;;5134027;27;20202;-70
2022/09/04 07:47:11;;;;;;;8.67;3.20;;;17.00;97.80;;;;;;5134440;27;20544;-69
2022/09/04 07:49:48;;;;;;;3.87;2.10;;;17.00;97.60;;;;;;5133475;27;20293;-68
2022/09/04 07:52:27;;;;;;;9.00;3.30;;;17.10;97.70;;;;;;5133664;27;20189;-68
2022/09/04 07:55:08;;;;;;;3.77;2.40;;;17.20;97.80;;;;;;5133561;27;20183;-69
2022/09/04 07:58:07;;;;;;;4.87;2.90;;;17.30;97.20;;;;;;5133596;27;20230;-67
2022/09/04 08:00:43;;;;;;;2.57;1.90;;;17.40;96.60;;;;;;5124444;27;20203;-68
2022/09/04 08:03:25;;;;;;;2.63;1.97;;;17.40;95.90;;;;;;5134064;27;20226;-68
2022/09/04 08:05:56;;;;;;;4.10;2.10;;;17.40;95.40;;;;;;5133742;27;20192;-69
2022/09/04 08:08:47;;;;;;;3.70;2.00;;;17.40;95.90;;;;;;5133363;27;20194;-69
2022/09/04 08:11:36;;;;;;;6.80;2.90;;;17.40;96.30;;;;;;5133558;27;20210;-69
2022/09/04 08:14:17;;;;;;;7.37;2.20;;;17.40;95.60;;;;;;5130125;27;20219;-69
2022/09/04 08:16:55;;;;;;;2.40;1.93;;;17.40;95.10;;;;;;5134070;27;20216;-69
2022/09/04 08:19:39;;;;;;;4.13;2.57;;;17.50;93.70;;;;;;5133457;27;20187;-70
2022/09/04 08:22:12;;;;;;;6.00;2.50;;;17.50;94.20;;;;;;5133676;27;20188;-68
2022/09/04 08:25:02;;;;;;;4.67;2.50;;;17.50;94.60;;;;;;5134280;27;20214;-68
2022/09/04 08:28:02;;;;;;;3.23;2.13;;;17.60;93.90;;;;;;5133132;27;20571;-68
2022/09/04 08:30:39;;;;;;;2.87;1.90;;;17.60;94.40;;;;;;5133222;27;20226;-67
2022/09/04 08:33:43;;;;;;;6.07;2.17;;;17.70;93.40;;;;;;5133990;27;20196;-69
2022/09/04 08:36:23;;;;;;;4.37;3.10;;;17.70;93.70;;;;;;5133125;27;20567;-69
2022/09/04 08:39:05;;;;;;;5.27;2.83;;;17.80;93.60;;;;;;5133405;27;20186;-69
2022/09/04 08:42:22;;;;;;;3.77;2.37;;;17.90;92.40;;;;;;5133276;27;20234;-67
2022/09/04 08:45:43;;;;;;;4.50;2.50;;;17.90;92.00;;;;;;5133442;28;20257;-67
2022/09/04 08:48:37;;;;;;;3.73;2.10;;;18.10;92.70;;;;;;5025247;28;20217;-67
2022/09/04 08:51:42;;;;;;;2.20;1.70;;;18.20;92.10;;;;;;5049923;28;20193;-71
2022/09/04 08:54:39;;;;;;;3.23;1.90;;;18.20;90.80;;;;;;5133582;27;20587;-69
2022/09/04 08:57:31;;;;;;;3.50;2.17;;;18.30;90.80;;;;;;5132830;28;20281;-69
2022/09/04 09:00:06;;;;;;;3.50;2.03;;;18.30;90.90;;;;;;5133217;27;20610;-70
2022/09/04 09:03:13;;;;;;;4.03;2.33;;;18.30;92.00;;;;;;5137404;27;20230;-68
2022/09/04 09:06:12;;;;;;;3.53;2.30;;;18.40;92.60;;;;;;5137336;27;20193;-71
2022/09/04 09:09:12;;;;;;;4.27;2.13;;;18.40;92.00;;;;;;5109449;27;20714;-69
2022/09/04 09:12:08;;;;;;;4.10;2.23;;;18.40;92.70;;;;;;5137599;27;20187;-69
2022/09/04 09:15:03;;;;;;;4.43;2.10;;;18.40;92.20;;;;;;5130834;27;20565;-71
2022/09/04 09:17:37;;;;;;;5.40;2.20;;;18.40;92.00;;;;;;5137603;27;20228;-67
2022/09/04 09:20:24;;;;;;;4.00;2.37;;;18.40;91.80;;;;;;5137325;27;20190;-71
2022/09/04 09:23:15;;;;;;;4.90;2.20;;;18.40;91.80;;;;;;5137176;27;20642;-69
2022/09/04 09:25:51;;;;;;;4.27;2.70;;;18.50;91.80;;;;;;5137456;27;20568;-66
2022/09/04 09:29:07;;;;;;;5.30;2.47;;;18.40;92.10;;;;;;5136017;27;20299;-67
2022/09/04 09:32:19;;;;;;;5.00;2.40;;;18.40;92.50;;;;;;5127809;27;20234;-69
2022/09/04 09:35:21;;;;;;;3.77;2.20;;;18.50;92.60;;;;;;5137000;27;20201;-69
2022/09/04 09:38:13;;;;;;;3.63;2.00;;;18.40;91.70;;;;;;5133762;27;20592;-69
2022/09/04 09:41:11;;;;;;;3.50;1.70;;;18.40;91.70;;;;;;5126849;27;20197;-69
2022/09/04 09:44:19;;;;;;;2.50;1.70;;;18.40;91.40;;;;;;5091163;27;20429;-69
2022/09/04 09:47:25;;;;;;;5.77;2.00;;;18.40;91.50;;;;;;5126397;27;20232;-68
2022/09/04 09:50:31;;;;;;;3.27;1.77;;;18.40;90.60;;;;;;5132721;27;20227;-67
2022/09/04 09:53:35;;;;;;;3.27;1.77;;;18.50;90.20;;;;;;5058992;27;20217;-68
2022/09/04 09:57:02;;;;;;;6.40;2.10;;;18.60;90.50;;;;;;5133210;27;20211;-70
2022/09/04 10:00:04;;;;;;;2.77;2.10;;;18.70;90.30;;;;;;5040234;28;20586;-68
2022/09/04 10:03:16;;;;;;;2.27;1.77;;;18.70;89.50;;;;;;5133551;27;20246;-68
2022/09/04 10:06:11;;;;;;;2.72;1.60;;;18.70;88.00;;;;;;5134880;27;20423;-70
2022/09/04 10:09:24;;;;;;;1.97;1.73;;;18.80;89.20;;;;;;5135741;27;20282;-69
2022/09/04 10:12:31;;;;;;;2.23;1.80;;;18.80;88.70;;;;;;5115102;28;20188;-69
2022/09/04 10:15:39;;;;;;;3.87;1.80;;;18.90;90.00;;;;;;5114786;28;20246;-67
2022/09/04 10:18:45;;;;;;;5.27;2.57;;;19.00;90.30;;;;;;5115323;28;20195;-70
2022/09/04 10:21:54;;;;;;;6.30;1.70;;;19.10;87.80;;;;;;5120707;27;20210;-69
2022/09/04 10:25:02;;;;;;;3.40;1.70;;;19.10;85.70;;;;;;5087158;27;20202;-68
2022/09/04 10:28:02;;;;;;;2.63;1.73;;;19.10;86.40;;;;;;5136254;27;20590;-68
2022/09/04 10:30:37;;;;;;;2.70;1.70;;;19.10;87.90;;;;;;5100884;27;20598;-69
2022/09/04 10:33:19;;;;;;;3.53;1.90;;;19.10;88.50;;;;;;5132864;27;20223;-68
2022/09/04 10:36:03;;;;;;;3.80;1.90;;;19.20;89.00;;;;;;5135455;27;20280;-68
2022/09/04 10:40:34;;;;;;;3.57;1.80;;;19.30;89.90;;;;;;5134904;27;20246;-68
2022/09/04 10:42:04;;;;;;;3.07;1.83;;;19.40;89.30;;;;;;5135122;27;20191;-68
2022/09/04 10:44:52;;;;;;;2.53;1.73;;;19.40;87.00;;;;;;5135603;27;20562;-69
2022/09/04 10:47:32;;;;;;;4.33;1.90;;;19.40;86.80;;;;;;5137433;27;20194;-67
2022/09/04 10:50:16;;;;;;;5.50;2.67;;;19.30;87.60;;;;;;5134519;27;20210;-69
2022/09/04 10:53:04;;;;;;;2.67;1.93;;;19.30;87.60;;;;;;5138210;27;20221;-69
2022/09/04 10:55:42;;;;;;;4.63;2.43;;;19.40;87.50;;;;;;5124466;27;20204;-70
2022/09/04 10:58:39;;;;;;;2.90;1.83;;;19.40;87.80;;;;;;5127737;27;20242;-70
2022/09/04 11:01:34;;;;;;;4.33;2.13;;;19.40;86.40;;;;;;5113361;28;20210;-70
2022/09/04 11:04:18;;;;;;;3.60;2.13;;;19.40;84.70;;;;;;5114351;28;20198;-71
2022/09/04 11:07:15;;;;;;;4.87;2.00;;;19.50;86.30;;;;;;5114278;28;20651;-71
2022/09/04 11:10:13;;;;;;;7.43;2.00;;;19.60;86.50;;;;;;5118457;27;20214;-72
2022/09/04 11:13:21;;;;;;;2.47;1.60;;;19.80;85.80;;;;;;5123617;27;20293;-71
2022/09/04 11:16:28;;;;;;;3.13;2.00;;;19.90;84.30;;;;;;5110660;27;20293;-71
2022/09/04 11:19:38;;;;;;;2.03;1.67;;;19.90;82.60;;;;;;5125590;27;20236;-73
2022/09/04 11:22:44;;;;;;;3.17;2.00;;;19.90;83.40;;;;;;5113414;28;20210;-71
2022/09/04 11:25:50;;;;;;;4.83;1.90;;;19.80;84.30;;;;;;5128081;27;20198;-71
2022/09/04 11:28:50;;;;;;;6.63;2.97;;;19.80;85.20;;;;;;5133930;27;20245;-73
2022/09/04 11:31:45;;;;;;;3.43;2.10;;;19.80;85.20;;;;;;5113813;28;20212;-70
2022/09/04 11:34:47;;;;;;;3.73;1.70;;;19.70;85.30;;;;;;5113972;28;20247;-72
2022/09/04 11:37:55;;;;;;;4.83;1.80;;;19.60;83.80;;;;;;5126978;27;20208;-71
2022/09/04 11:40:54;;;;;;;2.43;1.70;;;19.60;85.20;;;;;;5134187;27;20195;-70
2022/09/04 11:43:41;;;;;;;3.63;2.00;;;19.70;85.20;;;;;;5134105;27;20187;-73
2022/09/04 11:46:25;;;;;;;2.17;1.80;;;19.80;84.70;;;;;;5133831;27;20205;-71
2022/09/04 11:49:13;;;;;;;4.17;2.17;;;19.90;84.80;;;;;;5133680;27;20547;-70
2022/09/04 11:52:02;;;;;;;2.77;2.00;;;20.00;83.90;;;;;;5133326;27;20225;-72
2022/09/04 11:55:09;;;;;;;2.13;1.60;;;20.00;83.10;;;;;;5113491;28;20215;-71
2022/09/04 11:57:48;;;;;;;1.90;1.70;;;20.00;83.20;;;;;;5113232;28;20192;-69
2022/09/04 12:00:16;;;;;;;3.07;1.80;;;19.90;84.30;;;;;;5132047;27;20191;-70
2022/09/04 12:03:21;;;;;;;1.77;1.60;;;19.80;84.00;;;;;;5133094;27;20297;-70
2022/09/04 12:06:06;;;;;;;2.60;1.93;;;19.60;84.70;;;;;;5132914;27;20202;-70
2022/09/04 12:09:07;;;;;;;4.70;2.30;;;19.60;85.20;;;;;;5128375;27;20206;-71
2022/09/04 12:12:09;;;;;;;3.67;1.80;;;19.60;83.90;;;;;;5133139;27;20307;-70
2022/09/04 12:14:56;;;;;;;4.83;1.53;;;19.60;82.90;;;;;;5131253;27;20198;-72
2022/09/04 12:17:58;;;;;;;3.27;1.70;;;19.70;82.50;;;;;;5131604;27;20200;-71
2022/09/04 12:20:49;;;;;;;2.00;1.60;;;19.70;83.20;;;;;;5131816;27;20213;-70
2022/09/04 12:23:38;;;;;;;3.57;1.80;;;19.80;83.40;;;;;;5119693;27;20202;-70
2022/09/04 12:26:33;;;;;;;8.30;5.63;;;19.80;83.70;;;;;;5113651;28;20195;-70
2022/09/04 12:29:22;;;;;;;3.13;2.20;;;19.80;83.90;;;;;;5131933;27;20238;-70
2022/09/04 12:32:18;;;;;;;7.60;1.90;;;19.80;85.10;;;;;;5128678;27;20305;-70
2022/09/04 12:35:17;;;;;;;5.23;2.50;;;19.90;84.30;;;;;;5132164;27;20404;-71
2022/09/04 12:38:06;;;;;;;3.03;1.70;;;19.90;84.40;;;;;;5099120;27;20810;-71
2022/09/04 12:40:44;;;;;;;8.67;3.67;;;19.80;84.10;;;;;;5132009;27;20239;-70
2022/09/04 12:43:29;;;;;;;4.30;1.80;;;19.80;83.90;;;;;;5132923;27;20284;-70
2022/09/04 12:46:09;;;;;;;2.83;1.87;;;19.80;83.60;;;;;;5132599;27;20686;-70
2022/09/04 12:48:46;;;;;;;4.67;2.80;;;19.80;82.70;;;;;;5132117;27;20244;-70
2022/09/04 12:51:15;;;;;;;7.43;3.50;;;19.60;83.20;;;;;;5131667;28;20251;-73
2022/09/04 12:54:14;;;;;;;3.93;2.27;;;19.60;83.30;;;;;;5130663;28;20256;-71
2022/09/04 12:56:48;;;;;;;3.53;1.97;;;19.70;84.10;;;;;;5119548;27;20212;-69
2022/09/04 12:59:41;;;;;;;3.33;1.90;;;19.70;83.10;;;;;;5131188;28;20209;-71
2022/09/04 13:02:22;;;;;;;2.90;1.77;;;19.80;83.30;;;;;;5121698;28;20223;-70
2022/09/04 13:05:02;;;;;;;1.67;1.50;;;19.70;83.10;;;;;;5130310;28;20262;-70
2022/09/04 13:07:44;;;;;;;2.40;1.60;;;19.70;82.90;;;;;;5132098;28;20637;-71
2022/09/04 13:10:22;;;;;;;4.03;1.80;;;19.70;83.20;;;;;;5129458;27;20236;-70
2022/09/04 13:13:03;;;;;;;2.37;1.60;;;19.80;81.60;;;;;;5132575;28;20825;-70
2022/09/04 13:15:38;;;;;;;3.67;1.80;;;19.70;81.70;;;;;;5132299;28;20227;-71
2022/09/04 13:18:24;;;;;;;4.23;2.00;;;19.70;82.40;;;;;;5132740;27;20186;-70
2022/09/04 13:21:04;;;;;;;2.43;1.60;;;19.70;83.00;;;;;;5131745;27;20201;-71
2022/09/04 13:23:50;;;;;;;3.40;1.70;;;19.80;82.80;;;;;;5132357;28;20182;-70
2022/09/04 13:26:44;;;;;;;4.20;1.90;;;19.90;83.20;;;;;;5126923;28;20574;-70
2022/09/04 13:29:26;;;;;;;3.67;1.73;;;19.90;83.60;;;;;;5126667;27;20238;-70
2022/09/04 13:32:13;;;;;;;5.03;1.80;;;20.00;83.20;;;;;;5112221;28;20609;-69
2022/09/04 13:34:57;;;;;;;2.43;1.63;;;20.10;82.90;;;;;;5132590;27;20619;-69
2022/09/04 13:37:28;;;;;;;2.87;2.00;;;20.10;82.90;;;;;;5132471;28;20212;-71
2022/09/04 13:40:26;;;;;;;5.10;1.90;;;20.10;82.80;;;;;;5131837;28;20193;-71
2022/09/04 13:43:17;;;;;;;3.00;2.33;;;20.10;82.70;;;;;;5121630;28;20309;-71
2022/09/04 13:45:50;;;;;;;2.27;2.00;;;20.10;80.80;;;;;;5121645;28;20245;-70
2022/09/04 13:48:26;;;;;;;5.57;1.87;;;20.20;80.00;;;;;;5127345;27;20202;-69
2022/09/04 13:50:57;;;;;;;3.10;1.90;;;20.20;80.50;;;;;;5123418;27;20224;-70
2022/09/04 13:53:29;;;;;;;2.47;1.80;;;20.30;80.50;;;;;;5123672;27;20250;-70
2022/09/04 13:56:04;;;;;;;3.47;1.93;;;20.30;82.00;;;;;;5123672;27;20425;-71
2022/09/04 13:58:34;;;;;;;4.30;1.77;;;20.20;81.80;;;;;;5126431;27;20252;-74
2022/09/04 14:01:06;;;;;;;2.53;1.60;;;20.20;82.90;;;;;;5123977;27;20232;-67
2022/09/04 14:03:38;;;;;;;2.40;1.70;;;20.10;82.90;;;;;;5126194;27;20202;-69
2022/09/04 14:06:09;;;;;;;4.07;1.87;;;20.10;83.90;;;;;;5116484;27;20670;-69
2022/09/04 14:08:38;;;;;;;2.17;1.73;;;20.10;83.90;;;;;;5123757;27;20272;-69
2022/09/04 14:11:52;;;;;;;3.17;1.90;;;20.10;83.10;;;;;;5120944;27;20690;-70